createdAt,value
2019-04-26T00:02:44.013Z,41.54
2019-04-26T00:05:14.436Z,41.58
2019-04-26T00:07:43.808Z,41.67
2019-04-26T00:10:30.132Z,41.67
2019-04-26T00:13:12.399Z,41.61
2019-04-26T00:16:03.577Z,41.67
2019-04-26T00:18:32.644Z,41.57
2019-04-26T00:21:01.623Z,41.54
2019-04-26T00:23:30.781Z,41.61
2019-04-26T00:26:00.107Z,41.65
2019-04-26T00:28:29.117Z,41.68
2019-04-26T00:30:58.122Z,41.68
2019-04-26T00:33:27.054Z,41.68
2019-04-26T00:35:55.852Z,41.72
2019-04-26T00:38:24.738Z,41.74
2019-04-26T00:40:53.666Z,41.77
2019-04-26T00:43:22.705Z,41.76
2019-04-26T00:45:51.708Z,41.77
2019-04-26T00:48:21.091Z,41.74
2019-04-26T00:50:50.154Z,41.79
2019-04-26T00:53:19.645Z,41.68
2019-04-26T00:55:48.952Z,41.73
2019-04-26T00:58:18.724Z,41.75
2019-04-26T01:00:48.309Z,41.73
2019-04-26T01:03:17.292Z,41.78
2019-04-26T01:05:46.267Z,41.82
2019-04-26T01:08:15.812Z,41.82
2019-04-26T01:10:44.697Z,41.89
2019-04-26T01:13:13.560Z,41.90
2019-04-26T01:15:42.368Z,41.84
2019-04-26T01:18:11.240Z,41.83
2019-04-26T01:20:40.318Z,41.90
2019-04-26T01:23:09.324Z,41.95
2019-04-26T01:25:45.903Z,41.90
2019-04-26T01:28:19.695Z,41.78
2019-04-26T01:30:48.784Z,41.90
2019-04-26T01:33:20.131Z,41.88
2019-04-26T01:35:49.368Z,41.83
2019-04-26T01:38:19.245Z,41.90
2019-04-26T01:40:51.653Z,41.98
2019-04-26T01:43:27.225Z,41.98
2019-04-26T01:46:10.849Z,41.97
2019-04-26T01:48:48.427Z,41.89
2019-04-26T01:51:28.679Z,41.91
2019-04-26T01:53:56.992Z,41.97
2019-04-26T01:56:29.311Z,41.91
2019-04-26T01:58:58.194Z,41.98
2019-04-26T02:01:37.959Z,41.97
2019-04-26T02:04:06.889Z,42.02
2019-04-26T02:06:35.793Z,41.93
2019-04-26T02:09:07.358Z,41.93
2019-04-26T02:11:36.637Z,41.96
2019-04-26T02:14:05.626Z,41.88
2019-04-26T02:16:34.585Z,41.84
2019-04-26T02:19:03.601Z,41.92
2019-04-26T02:21:37.871Z,41.87
2019-04-26T02:24:13.036Z,41.93
2019-04-26T02:26:43.512Z,41.88
2019-04-26T02:29:14.554Z,41.88
2019-04-26T02:31:44.303Z,41.96
2019-04-26T02:34:13.642Z,41.96
2019-04-26T02:36:57.217Z,41.91
2019-04-26T02:39:37.139Z,42.03
2019-04-26T02:42:06.709Z,41.96
2019-04-26T02:44:50.587Z,41.90
2019-04-26T02:47:43.226Z,42.05
2019-04-26T02:50:18.088Z,42.06
2019-04-26T02:53:09.110Z,42.11
2019-04-26T02:56:13.806Z,42.14
2019-04-26T02:59:37.717Z,42.03
2019-04-26T03:02:06.878Z,42.12
2019-04-26T03:04:38.013Z,42.09
2019-04-26T03:07:18.062Z,42.11
2019-04-26T03:09:46.988Z,42.14
2019-04-26T03:12:16.345Z,42.08
2019-04-26T03:15:13.580Z,42.23
2019-04-26T03:17:50.646Z,42.17
2019-04-26T03:20:23.769Z,42.13
2019-04-26T03:23:02.268Z,42.18
2019-04-26T03:25:45.600Z,42.17
2019-04-26T03:28:39.534Z,42.20
2019-04-26T03:31:25.053Z,42.27
2019-04-26T03:34:27.279Z,42.30
2019-04-26T03:37:20.804Z,42.30
2019-04-26T03:40:09.999Z,42.30
2019-04-26T03:42:52.989Z,42.30
2019-04-26T03:45:39.080Z,42.27
2019-04-26T03:48:18.258Z,42.18
2019-04-26T03:50:56.067Z,42.23
2019-04-26T03:53:53.042Z,42.20
2019-04-26T03:57:04.153Z,42.16
2019-04-26T03:59:49.135Z,42.23
2019-04-26T04:02:40.904Z,42.19
2019-04-26T04:05:24.072Z,42.18
2019-04-26T04:07:53.325Z,42.31
2019-04-26T04:10:26.776Z,42.27
2019-04-26T04:13:12.149Z,42.33
2019-04-26T04:15:46.712Z,42.33
2019-04-26T04:18:21.448Z,42.43
2019-04-26T04:21:18.466Z,42.43
2019-04-26T04:24:17.340Z,42.40
2019-04-26T04:27:00.638Z,42.43
2019-04-26T04:29:55.249Z,42.45
2019-04-26T04:32:31.003Z,42.43
2019-04-26T04:35:01.660Z,42.47
2019-04-26T04:37:34.322Z,42.48
2019-04-26T04:40:27.029Z,42.47
2019-04-26T04:43:22.122Z,42.45
2019-04-26T04:47:03.408Z,42.43
2019-04-26T04:50:00.012Z,42.44
2019-04-26T04:52:44.533Z,42.43
2019-04-26T04:55:43.502Z,42.38
2019-04-26T04:58:18.504Z,42.37
2019-04-26T05:01:26.159Z,42.40
2019-04-26T05:04:07.631Z,42.38
2019-04-26T05:07:23.794Z,42.35
2019-04-26T05:10:03.805Z,42.35
2019-04-26T05:12:41.649Z,42.39
2019-04-26T05:15:44.558Z,42.38
2019-04-26T05:18:32.565Z,42.36
2019-04-26T05:21:17.426Z,42.38
2019-04-26T05:24:29.071Z,42.43
2019-04-26T05:27:17.828Z,42.41
2019-04-26T05:30:33.646Z,42.40
2019-04-26T05:33:31.307Z,42.43
2019-04-26T05:36:21.049Z,43.48
2019-04-26T05:39:07.277Z,46.06
2019-04-26T05:42:32.108Z,47.86
2019-04-26T05:46:02.287Z,47.58
2019-04-26T05:48:58.764Z,47.49
2019-04-26T05:52:07.115Z,47.20
2019-04-26T05:55:08.688Z,47.00
2019-04-26T05:58:03.351Z,47.04
2019-04-26T06:02:05.373Z,46.94
2019-04-26T06:05:03.191Z,46.62
2019-04-26T06:10:56.504Z,47.51
2019-04-26T06:13:58.425Z,48.00
2019-04-26T06:16:54.801Z,48.43
2019-04-26T06:19:48.207Z,48.57
2019-04-26T06:22:25.879Z,48.73
2019-04-26T06:25:07.248Z,49.03
2019-04-26T06:27:52.128Z,49.30
2019-04-26T06:30:57.301Z,49.34
2019-04-26T06:33:39.221Z,49.22
2019-04-26T06:36:13.163Z,49.64
2019-04-26T06:39:31.851Z,49.71
2019-04-26T06:42:29.327Z,49.90
2019-04-26T06:45:37.855Z,50.16
2019-04-26T06:48:16.481Z,50.99
2019-04-26T06:50:52.842Z,50.71
2019-04-26T06:53:51.975Z,50.31
2019-04-26T06:56:57.413Z,49.97
2019-04-26T06:59:43.375Z,49.64
2019-04-26T07:02:19.975Z,49.24
2019-04-26T07:05:23.201Z,48.82
2019-04-26T07:08:26.398Z,48.55
2019-04-26T07:11:45.000Z,48.33
2019-04-26T07:14:46.051Z,48.10
2019-04-26T07:17:17.423Z,47.86
2019-04-26T07:20:16.817Z,47.66
2019-04-26T07:23:13.485Z,48.18
2019-04-26T07:26:19.447Z,49.61
2019-04-26T07:29:30.448Z,50.34
2019-04-26T07:32:21.338Z,51.05
2019-04-26T07:35:19.670Z,51.00
2019-04-26T07:38:16.333Z,50.86
2019-04-26T07:41:29.891Z,50.79
2019-04-26T07:44:51.453Z,51.08
2019-04-26T07:47:36.612Z,51.39
2019-04-26T07:50:36.865Z,50.90
2019-04-26T07:53:36.246Z,50.37
2019-04-26T07:56:36.426Z,49.84
2019-04-26T07:59:52.499Z,49.35
2019-04-26T08:02:51.071Z,48.93
2019-04-26T08:05:32.492Z,48.51
2019-04-26T08:08:05.876Z,48.17
2019-04-26T08:10:37.686Z,47.95
2019-04-26T08:13:08.170Z,47.79
2019-04-26T08:15:48.418Z,47.62
2019-04-26T08:18:20.771Z,47.50
2019-04-26T08:20:52.266Z,47.40
2019-04-26T08:23:41.035Z,47.72
2019-04-26T08:26:01.755Z,47.95
2019-04-26T08:28:31.722Z,47.85
2019-04-26T08:31:01.601Z,47.69
2019-04-26T08:33:35.687Z,47.55
2019-04-26T08:36:04.714Z,47.35
2019-04-26T08:38:34.347Z,47.18
2019-04-26T08:41:04.984Z,46.99
2019-04-26T08:44:03.738Z,46.84
2019-04-26T08:46:50.635Z,46.72
2019-04-26T08:49:39.098Z,46.59
2019-04-26T08:52:14.397Z,46.47
2019-04-26T08:54:43.320Z,46.44
2019-04-26T08:57:22.173Z,46.42
2019-04-26T08:59:54.175Z,46.37
2019-04-26T09:02:45.616Z,46.30
2019-04-26T09:05:37.307Z,46.23
2019-04-26T09:08:06.500Z,46.18
2019-04-26T09:10:35.555Z,46.17
2019-04-26T09:13:04.545Z,46.13
2019-04-26T09:15:58.923Z,46.05
2019-04-26T09:18:27.948Z,46.04
2019-04-26T09:20:57.033Z,46.00
2019-04-26T09:23:56.713Z,45.98
2019-04-26T09:26:46.611Z,46.02
2019-04-26T09:29:30.207Z,46.04
2019-04-26T09:32:08.663Z,46.09
2019-04-26T09:34:41.286Z,45.99
2019-04-26T09:37:07.689Z,46.01
2019-04-26T09:39:36.657Z,46.03
2019-04-26T09:42:12.938Z,45.94
2019-04-26T09:44:47.098Z,45.86
2019-04-26T09:47:24.246Z,45.84
2019-04-26T09:50:14.938Z,45.77
2019-04-26T09:52:45.742Z,45.75
2019-04-26T09:55:14.708Z,45.71
2019-04-26T09:57:43.826Z,45.72
2019-04-26T10:00:15.395Z,45.67
2019-04-26T10:02:44.518Z,45.62
2019-04-26T10:05:13.630Z,45.49
2019-04-26T10:07:42.818Z,45.48
2019-04-26T10:10:22.343Z,45.44
2019-04-26T10:12:53.630Z,45.40
2019-04-26T10:15:35.450Z,45.38
2019-04-26T10:18:04.570Z,45.40
2019-04-26T10:20:33.569Z,45.37
2019-04-26T10:23:02.435Z,45.33
2019-04-26T10:25:31.506Z,45.31
2019-04-26T10:28:00.440Z,45.28
2019-04-26T10:30:29.346Z,45.27
2019-04-26T10:33:02.082Z,45.27
2019-04-26T10:35:28.983Z,45.30
2019-04-26T10:37:57.990Z,45.31
2019-04-26T10:40:35.396Z,45.29
2019-04-26T10:42:57.696Z,45.30
2019-04-26T10:45:27.924Z,45.27
2019-04-26T10:47:56.167Z,45.28
2019-04-26T10:50:28.730Z,45.33
2019-04-26T10:53:07.988Z,45.36
2019-04-26T10:55:54.911Z,45.32
2019-04-26T10:58:38.065Z,45.29
2019-04-26T11:01:26.302Z,45.26
2019-04-26T11:04:14.328Z,45.24
2019-04-26T11:06:43.165Z,45.30
2019-04-26T11:09:12.079Z,45.31
2019-04-26T11:11:41.147Z,45.31
2019-04-26T11:14:10.175Z,45.30
2019-04-26T11:16:41.151Z,45.32
2019-04-26T11:19:10.222Z,45.28
2019-04-26T11:21:39.150Z,45.33
2019-04-26T11:24:08.231Z,45.28
2019-04-26T11:26:37.162Z,45.30
2019-04-26T11:29:06.208Z,45.31
2019-04-26T11:31:35.179Z,45.29
2019-04-26T11:36:37.691Z,45.27
2019-04-26T11:39:08.181Z,45.27
2019-04-26T11:40:14.088Z,45.29
2019-04-26T11:41:37.895Z,45.32
2019-04-26T11:44:08.110Z,45.36
2019-04-26T11:46:44.675Z,45.36
2019-04-26T11:49:08.309Z,45.35
2019-04-26T11:51:37.322Z,45.37
2019-04-26T11:54:06.292Z,45.41
2019-04-26T11:56:37.532Z,45.40
2019-04-26T11:59:06.173Z,45.40
2019-04-26T12:01:36.670Z,45.42
2019-04-26T12:04:12.458Z,45.42
2019-04-26T12:07:01.420Z,45.45
2019-04-26T12:09:38.444Z,45.47
2019-04-26T12:12:09.330Z,45.51
2019-04-26T12:14:39.122Z,45.51
2019-04-26T12:17:07.992Z,45.62
2019-04-26T12:19:36.879Z,45.82
2019-04-26T12:22:08.439Z,45.99
2019-04-26T12:24:37.326Z,45.90
2019-04-26T12:27:06.589Z,45.89
2019-04-26T12:29:36.967Z,46.08
2019-04-26T12:32:05.891Z,46.24
2019-04-26T12:34:34.953Z,46.19
2019-04-26T12:37:03.809Z,46.15
2019-04-26T12:39:36.810Z,46.14
2019-04-26T12:42:04.470Z,46.11
2019-04-26T12:44:41.369Z,46.17
2019-04-26T12:47:15.495Z,46.34
2019-04-26T12:49:44.317Z,46.31
2019-04-26T12:52:13.384Z,46.34
2019-04-26T12:54:42.956Z,46.37
2019-04-26T12:57:16.116Z,46.33
2019-04-26T12:59:44.647Z,46.36
2019-04-26T13:02:16.540Z,46.38
2019-04-26T13:04:44.745Z,46.44
2019-04-26T13:07:23.794Z,46.48
2019-04-26T13:10:07.169Z,46.59
2019-04-26T13:13:01.303Z,46.55
2019-04-26T13:15:51.874Z,46.57
2019-04-26T13:18:20.858Z,46.57
2019-04-26T13:20:49.882Z,46.70
2019-04-26T13:23:18.813Z,46.70
2019-04-26T13:25:47.686Z,46.71
2019-04-26T13:28:20.374Z,46.71
2019-04-26T13:30:47.595Z,46.67
2019-04-26T13:33:16.576Z,46.68
2019-04-26T13:36:01.934Z,46.71
2019-04-26T13:38:16.167Z,46.60
2019-04-26T13:40:45.005Z,46.66
2019-04-26T13:43:14.013Z,46.69
2019-04-26T13:46:04.853Z,46.73
2019-04-26T13:49:07.831Z,46.76
2019-04-26T13:51:36.941Z,46.79
2019-04-26T13:54:05.830Z,46.74
2019-04-26T13:56:35.906Z,46.72
2019-04-26T13:59:05.978Z,46.71
2019-04-26T14:01:35.054Z,46.74
2019-04-26T14:04:06.744Z,46.86
2019-04-26T14:06:34.508Z,46.86
2019-04-26T14:09:03.983Z,46.88
2019-04-26T14:11:33.043Z,46.96
2019-04-26T14:14:02.013Z,46.95
2019-04-26T14:16:31.024Z,47.02
2019-04-26T14:19:00.003Z,46.94
2019-04-26T14:21:33.016Z,46.93
2019-04-26T14:24:19.500Z,47.02
2019-04-26T14:26:51.776Z,47.03
2019-04-26T14:29:21.142Z,47.06
2019-04-26T14:31:52.952Z,47.12
2019-04-26T14:34:21.563Z,47.24
2019-04-26T14:36:50.483Z,47.16
2019-04-26T14:39:20.987Z,47.13
2019-04-26T14:41:52.795Z,47.23
2019-04-26T14:44:20.870Z,47.25
2019-04-26T14:46:53.253Z,47.26
2019-04-26T14:49:23.328Z,47.35
2019-04-26T14:51:55.866Z,47.28
2019-04-26T14:54:22.204Z,47.35
2019-04-26T14:56:52.307Z,47.36
2019-04-26T14:59:43.481Z,47.41
2019-04-26T15:02:29.392Z,47.40
2019-04-26T15:05:20.200Z,47.42
2019-04-26T15:07:51.494Z,47.48
2019-04-26T15:10:22.694Z,47.46
2019-04-26T15:12:58.510Z,47.44
2019-04-26T15:15:22.452Z,47.45
2019-04-26T15:17:55.075Z,47.41
2019-04-26T15:20:24.297Z,47.40
2019-04-26T15:22:52.982Z,47.45
2019-04-26T15:25:22.454Z,47.43
2019-04-26T15:27:52.439Z,47.43
2019-04-26T15:30:22.300Z,47.40
2019-04-26T15:32:52.904Z,47.45
2019-04-26T15:35:23.242Z,47.48
2019-04-26T15:37:53.341Z,47.49
2019-04-26T15:40:39.613Z,47.53
2019-04-26T15:43:20.830Z,47.53
2019-04-26T15:45:58.439Z,47.55
2019-04-26T15:48:54.488Z,47.57
2019-04-26T15:51:27.162Z,47.61
2019-04-26T15:53:55.138Z,47.57
2019-04-26T15:56:24.789Z,47.58
2019-04-26T15:58:53.703Z,47.59
2019-04-26T16:01:22.623Z,47.55
2019-04-26T16:03:53.086Z,47.61
2019-04-26T16:06:23.653Z,47.64
2019-04-26T16:08:52.585Z,47.65
2019-04-26T16:11:21.899Z,47.61
2019-04-26T16:13:55.058Z,47.62
2019-04-26T16:16:27.934Z,47.65
2019-04-26T16:18:55.534Z,47.67
2019-04-26T16:21:23.161Z,47.71
2019-04-26T16:23:55.337Z,47.73
2019-04-26T16:26:23.637Z,47.81
2019-04-26T16:29:18.368Z,47.80
2019-04-26T16:31:57.337Z,47.86
2019-04-26T16:34:26.748Z,47.88
2019-04-26T16:36:55.946Z,48.04
2019-04-26T16:39:32.294Z,48.26
2019-04-26T16:41:55.560Z,48.29
2019-04-26T16:44:29.487Z,48.40
2019-04-26T16:47:01.258Z,48.33
2019-04-26T16:49:25.748Z,48.23
2019-04-26T16:52:01.998Z,48.19
2019-04-26T16:54:44.737Z,48.29
2019-04-26T16:57:13.799Z,48.42
2019-04-26T16:59:49.032Z,48.44
2019-04-26T17:02:16.156Z,48.48
2019-04-26T17:04:44.299Z,48.46
2019-04-26T17:07:13.871Z,48.49
2019-04-26T17:09:59.628Z,48.58
2019-04-26T17:12:14.831Z,48.54
2019-04-26T17:14:47.731Z,48.64
2019-04-26T17:17:15.053Z,48.66
2019-04-26T17:19:43.893Z,48.80
2019-04-26T17:22:23.228Z,48.77
2019-04-26T17:25:09.861Z,48.87
2019-04-26T17:27:40.221Z,48.80
2019-04-26T17:30:13.071Z,48.94
2019-04-26T17:32:42.229Z,48.82
2019-04-26T17:35:12.721Z,48.92
2019-04-26T17:37:41.632Z,48.95
2019-04-26T17:40:10.643Z,48.99
2019-04-26T17:42:40.798Z,49.08
2019-04-26T17:45:10.785Z,49.03
2019-04-26T17:47:41.818Z,48.98
2019-04-26T17:50:10.958Z,49.00
2019-04-26T17:52:40.887Z,49.03
2019-04-26T17:55:11.927Z,49.05
2019-04-26T17:57:47.898Z,48.96
2019-04-26T18:00:15.392Z,49.00
2019-04-26T18:02:47.983Z,49.21
2019-04-26T18:05:13.563Z,49.19
2019-04-26T18:07:50.260Z,49.13
2019-04-26T18:10:13.525Z,49.16
2019-04-26T18:12:44.169Z,49.12
2019-04-26T18:15:17.273Z,49.13
2019-04-26T18:18:04.040Z,49.16
2019-04-26T18:20:57.115Z,49.19
2019-04-26T18:23:26.221Z,49.13
2019-04-26T18:25:55.180Z,49.12
2019-04-26T18:28:24.237Z,49.13
2019-04-26T18:30:53.454Z,49.19
2019-04-26T18:33:43.180Z,49.21
2019-04-26T18:36:31.906Z,49.24
2019-04-26T18:39:03.742Z,49.28
2019-04-26T18:41:33.961Z,49.23
2019-04-26T18:44:03.244Z,49.18
2019-04-26T18:46:47.148Z,49.23
2019-04-26T18:49:18.324Z,49.25
2019-04-26T18:51:48.348Z,49.25
2019-04-26T18:54:35.588Z,49.34
2019-04-26T18:57:04.771Z,49.34
2019-04-26T18:59:34.149Z,49.30
2019-04-26T19:02:03.995Z,49.19
2019-04-26T19:04:33.638Z,49.04
2019-04-26T19:07:02.871Z,49.04
2019-04-26T19:09:45.254Z,49.03
2019-04-26T19:12:02.725Z,49.11
2019-04-26T19:15:03.052Z,49.21
2019-04-26T19:17:47.052Z,49.14
2019-04-26T19:20:37.869Z,49.22
2019-04-26T19:23:08.617Z,49.35
2019-04-26T19:25:40.868Z,49.33
2019-04-26T19:28:08.473Z,49.34
2019-04-26T19:30:40.089Z,49.37
2019-04-26T19:33:11.532Z,49.42
2019-04-26T19:35:43.141Z,49.45
2019-04-26T19:38:13.338Z,49.43
2019-04-26T19:40:46.085Z,49.42
2019-04-26T19:43:12.621Z,49.47
2019-04-26T19:46:04.565Z,49.47
2019-04-26T19:48:55.364Z,49.56
2019-04-26T19:51:45.440Z,49.57
2019-04-26T19:54:31.365Z,49.59
2019-04-26T19:57:03.685Z,49.56
2019-04-26T19:59:34.473Z,49.53
2019-04-26T20:02:02.358Z,49.59
2019-04-26T20:04:34.074Z,49.51
2019-04-26T20:07:02.296Z,49.42
2019-04-26T20:09:31.922Z,49.48
2019-04-26T20:12:02.610Z,49.48
2019-04-26T20:14:44.931Z,49.42
2019-04-26T20:17:02.559Z,49.40
2019-04-26T20:19:37.022Z,49.39
2019-04-26T20:22:03.629Z,49.41
2019-04-26T20:24:32.705Z,49.45
2019-04-26T20:27:03.551Z,49.51
2019-04-26T20:29:32.821Z,49.55
2019-04-26T20:32:12.497Z,49.55
2019-04-26T20:34:45.260Z,49.56
2019-04-26T20:37:16.232Z,49.53
2019-04-26T20:39:45.202Z,49.52
2019-04-26T20:42:14.408Z,49.55
2019-04-26T20:44:50.448Z,49.55
2019-04-26T20:47:17.486Z,49.57
2019-04-26T20:49:49.673Z,49.50
2019-04-26T20:52:20.787Z,49.52
2019-04-26T20:54:51.107Z,49.52
2019-04-26T20:57:17.864Z,49.49
2019-04-26T20:59:46.818Z,49.44
2019-04-26T21:02:16.244Z,49.39
2019-04-26T21:04:46.659Z,49.38
2019-04-26T21:07:15.763Z,49.37
2019-04-26T21:09:44.603Z,49.43
2019-04-26T21:12:17.274Z,49.47
2019-04-26T21:14:45.633Z,49.50
2019-04-26T21:17:14.908Z,49.52
2019-04-26T21:19:43.952Z,49.51
2019-04-26T21:22:12.996Z,49.50
2019-04-26T21:24:43.667Z,49.58
2019-04-26T21:27:31.790Z,49.59
2019-04-26T21:30:08.104Z,49.59
2019-04-26T21:32:59.389Z,49.54
2019-04-26T21:35:34.237Z,49.58
2019-04-26T21:38:07.425Z,49.58
2019-04-26T21:40:41.550Z,49.57
2019-04-26T21:43:10.472Z,49.51
2019-04-26T21:45:39.409Z,49.49
2019-04-26T21:48:28.994Z,49.51
2019-04-26T21:50:57.874Z,49.55
2019-04-26T21:53:29.676Z,49.55
2019-04-26T21:55:57.453Z,49.58
2019-04-26T21:58:26.612Z,49.58
2019-04-26T22:01:15.746Z,49.56
2019-04-26T22:03:47.474Z,49.61
2019-04-26T22:06:14.658Z,49.53
2019-04-26T22:08:57.305Z,49.54
2019-04-26T22:11:23.312Z,49.49
2019-04-26T22:14:00.698Z,49.49
2019-04-26T22:16:38.286Z,49.58
2019-04-26T22:19:35.345Z,49.53
2019-04-26T22:22:23.194Z,49.57
2019-04-26T22:24:53.142Z,49.55
2019-04-26T22:27:25.318Z,49.55
2019-04-26T22:29:55.110Z,49.58
2019-04-26T22:32:24.133Z,49.57
2019-04-26T22:34:53.929Z,49.52
2019-04-26T22:37:29.610Z,49.54
2019-04-26T22:39:54.341Z,49.51
2019-04-26T22:42:23.990Z,49.51
2019-04-26T22:45:03.326Z,49.51
2019-04-26T22:47:43.770Z,49.46
2019-04-26T22:50:15.656Z,49.46
2019-04-26T22:52:46.710Z,49.50
2019-04-26T22:55:17.594Z,49.51
2019-04-26T22:57:45.358Z,49.53
2019-04-26T23:00:20.107Z,49.48
2019-04-26T23:02:47.539Z,49.48
2019-04-26T23:05:16.470Z,49.47
2019-04-26T23:07:45.513Z,49.46
2019-04-26T23:10:15.342Z,49.46
2019-04-26T23:13:04.456Z,49.42
2019-04-26T23:15:51.592Z,49.37
2019-04-26T23:18:38.736Z,49.35
2019-04-26T23:21:15.108Z,49.35
2019-04-26T23:23:44.362Z,49.31
2019-04-26T23:26:14.420Z,49.33
2019-04-26T23:28:43.658Z,49.31
2019-04-26T23:31:13.436Z,49.34
2019-04-26T23:33:42.988Z,49.36
2019-04-26T23:36:13.611Z,49.34
2019-04-26T23:38:43.908Z,49.34
2019-04-26T23:41:14.244Z,49.33
2019-04-26T23:43:42.486Z,49.29
2019-04-26T23:46:14.385Z,49.33
2019-04-26T23:48:48.491Z,49.36
2019-04-26T23:51:13.222Z,49.36
2019-04-26T23:53:42.891Z,49.34
2019-04-26T23:56:16.165Z,49.34
2019-04-26T23:58:44.130Z,49.35
